Уральск (Ак-Жол)

Карта отелей и гостиниц, располагающихся рядом с аэропортом Уральск (Ак-Жол) :

Уральск (Ак-Жол) Западно-Казахстанская область 51° 9' 3.3588" N, 51° 32' 30.0588" E
Код аэродрома ИКАО
UARR
Код аэродрома RU
УАРР
Координаты
N51.15093° E051.54168°
Превышение над уровнем моря
38
Основная полоса
04L/22R
Курс магнитный
041/221
Длина основной ВПП
2400
Ширина основной ВПП
42
Покрытие основной ВПП
Твёрдое (бетон)
Освещение ВПП
Постоянное
Тип: 
Аэродром
Класс аэродрома: 
Международный
Принадлежность: 
ГА
Статус: 
Действующий
Страна: 
Казахстан
Регион: 
Западно-Казахстанская область
Дополнительная информация: 
Эксплуатант: ТОО "Международный аэропорт «Орал»". Нкр.=(500)м. ДПРМ:442-"SK/UR", БПРМ:214-"S/U". По состоянию на 14.08.2011 ВПП находится в неудовлетворительном состоянии для приема ВС. ВПП нуждается в срочном капитальном ремонте. Так, по результатам инспекции британской консалтинговой инженерной компанией "Mott Macdonald", центральная часть ВПП остается неровной. В плитах много выемок, трещин, мест просадки. Это приводит к повреждению ВС, их ремонту и увеличению количества рейсов, задержанных по технической причине.
Погода: 

Авиационная погода в Уральске

Регион: 
Погода METAR: 
UARR 241700Z 27002MPS CAVOK 04/01 Q1016 R22/210265 NOSIG RMK QFE758/1011
Время наблюдения
2021-10-24T17:00:00Z
Температура C
4.0
Точка росы
1.0
Направление ветра
270
Скорость ветра (узлы)
4
Метео видимость
6.21
Явления погоды
Условия полета
VFR
Аэропорт подробнее: 

Найти трансфер

С помощью этой формы Вы можете найти трансфер из аэропорта Уральск (Ак-Жол) в город, аэропорт или вокзал:

Карта места

Javascript is required to view this map.

Погода в аэропортах:

Авиационная погода в Москва - Внуково

Погода METAR: 
UUWW 241700Z 33006MPS 9000 -SHSN BKN031CB 01/M04 Q1022 RMK WS R24 R24/290050 TEMPO 1500 SHSN BKN012CB
Время наблюдения
2021-10-24T17:00:00Z
Температура C
1.0
Точка росы
-4.0
Направление ветра
330
Скорость ветра (узлы)
12
Метео видимость
5.59
Явления погоды
-SHSN
Условия полета
VFR
Аэропорт подробнее: 

Авиационная погода в Краснодаре

Регион: 
Погода METAR: 
URKK 241700Z 36005MPS 9999 -SHRA BKN031CB 06/04 Q1024 R05R/290060 TEMPO 2000 TSRA SCT005 BKN020CB RMK QFE765
Время наблюдения
2021-10-24T17:00:00Z
Температура C
6.0
Точка росы
4.0
Направление ветра
360
Скорость ветра (узлы)
10
Метео видимость
6.21
Явления погоды
-SHRA
Условия полета
VFR
Аэропорт подробнее: 

Авиационная погода в Берлевоге

Регион: 
Погода METAR: 
ENBV 221920Z 01015KT 9999 VCSH FEW008 SCT030 BKN045 00/M06 Q1000
Время наблюдения
2021-10-22T19:20:00Z
Температура C
0.0
Точка росы
-6.0
Направление ветра
10
Скорость ветра (узлы)
15
Метео видимость
6.21
Явления погоды
VCSH
Условия полета
VFR

Авиационная погода в Зонгулдаке

Регион: 
Погода METAR: 
LTAS 241350Z 04003KT 340V110 6000 -SHRA FEW009 BKN023 BKN080 12/12 Q1026
Время наблюдения
2021-10-24T13:50:00Z
Температура C
12.0
Точка росы
12.0
Направление ветра
40
Скорость ветра (узлы)
3
Метео видимость
3.73
Явления погоды
-SHRA
Условия полета
MVFR